Time;durP1;ratioP1;P1;durP2;ratioP2;P2;SDS_P1;SDS_P2;PMS_P1;PMS_P2;Temp;Humidity;BMP_temperature;BMP_pressure;BME280_temperature;BME280_humidity;BME280_pressure;Samples;Min_cycle;Max_cycle;Signal;HPM_P1;HPM_P2
2022/05/29 00:00:42;;;;;;;1.85;0.85;;;22.00;45.80;;;;;;5055739;28;20076;-62
2022/05/29 00:03:08;;;;;;;2.28;0.88;;;22.00;45.80;;;;;;5056813;28;20949;-61
2022/05/29 00:05:37;;;;;;;2.78;1.35;;;22.00;45.90;;;;;;5053476;28;20040;-62
2022/05/29 00:08:03;;;;;;;2.45;0.98;;;21.90;46.00;;;;;;5051702;28;20164;-62
2022/05/29 00:10:28;;;;;;;4.18;0.88;;;21.90;46.00;;;;;;5053644;28;20059;-62
2022/05/29 00:12:54;;;;;;;1.27;0.80;;;21.90;46.00;;;;;;5057303;28;20238;-61
2022/05/29 00:15:19;;;;;;;2.10;0.80;;;21.90;46.00;;;;;;5052660;28;20038;-62
2022/05/29 00:17:45;;;;;;;2.47;0.80;;;21.90;46.00;;;;;;5053187;28;20049;-61
2022/05/29 00:20:11;;;;;;;1.23;0.93;;;21.90;46.00;;;;;;5055676;28;20634;-61
2022/05/29 00:22:38;;;;;;;1.65;0.80;;;21.90;46.00;;;;;;5047093;28;20548;-61
2022/05/29 00:25:08;;;;;;;2.15;1.15;;;21.90;46.00;;;;;;5054880;28;20127;-62
2022/05/29 00:27:34;;;;;;;1.50;0.80;;;21.80;46.00;;;;;;5055653;28;20032;-61
2022/05/29 00:30:00;;;;;;;1.92;1.02;;;21.80;46.00;;;;;;5055591;28;20041;-61
2022/05/29 00:32:26;;;;;;;1.20;0.82;;;21.80;46.00;;;;;;5057839;28;20051;-63
2022/05/29 00:34:51;;;;;;;2.17;1.27;;;21.80;46.10;;;;;;5059301;28;20393;-61
2022/05/29 00:37:17;;;;;;;1.58;0.82;;;21.80;46.00;;;;;;5058284;28;20535;-61
2022/05/29 00:39:49;;;;;;;1.77;0.98;;;21.80;46.00;;;;;;5056824;28;20032;-61
2022/05/29 00:42:16;;;;;;;1.65;1.00;;;21.80;46.10;;;;;;5058412;28;20040;-61
2022/05/29 00:44:42;;;;;;;2.05;1.05;;;21.80;46.00;;;;;;5058261;28;20452;-61
2022/05/29 00:47:17;;;;;;;2.08;0.90;;;21.80;46.10;;;;;;5042428;28;20075;-61
2022/05/29 00:49:46;;;;;;;1.92;0.80;;;21.80;46.10;;;;;;5057703;28;20044;-61
2022/05/29 00:52:24;;;;;;;2.15;1.08;;;21.70;46.10;;;;;;5057181;28;20409;-61
2022/05/29 00:54:55;;;;;;;1.50;0.98;;;21.70;46.10;;;;;;5059054;28;20057;-62
2022/05/29 00:57:36;;;;;;;2.70;0.90;;;21.70;46.20;;;;;;5056274;28;20420;-61
2022/05/29 01:00:12;;;;;;;1.25;0.68;;;21.70;46.10;;;;;;5058820;28;20044;-61
2022/05/29 01:02:37;;;;;;;1.52;0.88;;;21.70;46.20;;;;;;5054735;28;20071;-62
2022/05/29 01:05:05;;;;;;;2.53;0.80;;;21.70;46.20;;;;;;5050083;28;20063;-61
2022/05/29 01:07:31;;;;;;;2.38;1.10;;;21.70;46.20;;;;;;5040150;28;20032;-63
2022/05/29 01:09:59;;;;;;;1.17;0.88;;;21.70;46.30;;;;;;5058880;28;20064;-61
2022/05/29 01:12:47;;;;;;;1.38;0.75;;;21.70;46.30;;;;;;5057705;28;20036;-61
2022/05/29 01:15:37;;;;;;;1.90;1.00;;;21.60;46.20;;;;;;5058847;28;20580;-61
2022/05/29 01:18:21;;;;;;;1.75;0.90;;;21.60;46.30;;;;;;5058457;28;20124;-61
2022/05/29 01:21:10;;;;;;;1.42;0.80;;;21.60;46.30;;;;;;5058696;28;20033;-63
2022/05/29 01:24:08;;;;;;;3.05;1.00;;;21.60;46.30;;;;;;5057425;28;20044;-62
2022/05/29 01:27:01;;;;;;;1.92;0.70;;;21.60;46.40;;;;;;5057620;28;20067;-61
2022/05/29 01:29:33;;;;;;;3.08;1.02;;;21.60;46.40;;;;;;5056137;28;21037;-61
2022/05/29 01:32:08;;;;;;;1.85;0.98;;;21.60;46.40;;;;;;5056737;28;20309;-61
2022/05/29 01:34:41;;;;;;;2.97;1.00;;;21.60;46.50;;;;;;5054315;28;20132;-61
2022/05/29 01:37:14;;;;;;;2.63;0.77;;;21.60;46.40;;;;;;5057513;28;20052;-61
2022/05/29 01:39:52;;;;;;;1.65;0.88;;;21.60;46.50;;;;;;5057411;28;20073;-61
2022/05/29 01:42:44;;;;;;;1.02;0.93;;;21.50;46.40;;;;;;5058673;28;20087;-61
2022/05/29 01:45:53;;;;;;;1.65;0.80;;;21.50;46.40;;;;;;5056738;28;20255;-61
2022/05/29 01:48:32;;;;;;;1.70;1.02;;;21.50;46.40;;;;;;5041469;28;20079;-61
2022/05/29 01:51:04;;;;;;;2.08;0.95;;;21.50;46.50;;;;;;5058352;28;20041;-61
2022/05/29 01:53:35;;;;;;;1.98;1.05;;;21.50;46.50;;;;;;5058593;28;20483;-63
2022/05/29 01:56:08;;;;;;;1.92;1.05;;;21.50;46.50;;;;;;5057989;28;20037;-61
2022/05/29 01:58:39;;;;;;;3.00;1.20;;;21.50;46.50;;;;;;5056963;28;20397;-62
2022/05/29 02:01:08;;;;;;;1.08;0.70;;;21.50;46.50;;;;;;5053157;28;20080;-61
2022/05/29 02:03:38;;;;;;;3.30;1.17;;;21.50;46.50;;;;;;5052036;28;20072;-62
2022/05/29 02:06:11;;;;;;;1.65;1.10;;;21.40;46.50;;;;;;5045329;28;20125;-63
2022/05/29 02:08:46;;;;;;;1.98;0.80;;;21.40;46.50;;;;;;5051658;28;20059;-62
2022/05/29 02:11:16;;;;;;;1.25;0.77;;;21.40;46.50;;;;;;5056941;28;20218;-62
2022/05/29 02:13:57;;;;;;;2.33;0.80;;;21.40;46.50;;;;;;5053676;28;20456;-61
2022/05/29 02:16:47;;;;;;;2.47;0.93;;;21.40;46.50;;;;;;5052143;28;20161;-62
2022/05/29 02:19:17;;;;;;;2.50;1.00;;;21.40;46.60;;;;;;5055651;28;20033;-61
2022/05/29 02:21:45;;;;;;;1.67;0.70;;;21.40;46.60;;;;;;5055138;28;20044;-61
2022/05/29 02:24:16;;;;;;;1.42;0.90;;;21.40;46.60;;;;;;5053171;28;20087;-61
2022/05/29 02:26:53;;;;;;;1.33;0.88;;;21.40;46.60;;;;;;5056616;28;20037;-61
2022/05/29 02:29:19;;;;;;;1.80;0.80;;;21.40;46.60;;;;;;5054111;28;20049;-61
2022/05/29 02:32:13;;;;;;;1.83;1.00;;;21.40;46.70;;;;;;5058563;28;20094;-61
2022/05/29 02:34:55;;;;;;;2.17;0.82;;;21.40;46.70;;;;;;5048070;28;20037;-61
2022/05/29 02:37:37;;;;;;;1.55;0.80;;;21.40;46.70;;;;;;5056808;28;20435;-61
2022/05/29 02:40:07;;;;;;;3.25;1.05;;;21.40;46.70;;;;;;5035852;28;20123;-62
2022/05/29 02:42:46;;;;;;;2.05;0.90;;;21.30;46.70;;;;;;5056370;28;20715;-61
2022/05/29 02:45:31;;;;;;;1.33;1.00;;;21.40;46.80;;;;;;5054326;28;20062;-61
2022/05/29 02:48:21;;;;;;;2.05;0.82;;;21.30;46.70;;;;;;5054853;28;20043;-62
2022/05/29 02:51:06;;;;;;;2.13;0.90;;;21.30;46.70;;;;;;5057713;28;20040;-62
2022/05/29 02:53:33;;;;;;;1.25;0.70;;;21.30;46.80;;;;;;5057720;28;20044;-61
2022/05/29 02:56:03;;;;;;;2.53;1.00;;;21.30;46.80;;;;;;5056696;28;20052;-61
2022/05/29 02:58:31;;;;;;;2.28;1.00;;;21.30;46.80;;;;;;5056589;28;20052;-61
2022/05/29 03:01:18;;;;;;;1.70;0.75;;;21.30;46.80;;;;;;5058245;28;20036;-61
2022/05/29 03:03:53;;;;;;;2.78;1.10;;;21.30;46.90;;;;;;5040315;28;20047;-61
2022/05/29 03:06:29;;;;;;;2.83;1.10;;;21.30;46.80;;;;;;5053046;28;20049;-62
2022/05/29 03:09:19;;;;;;;1.60;0.90;;;21.30;46.90;;;;;;5055099;28;20033;-61
2022/05/29 03:11:46;;;;;;;1.98;1.08;;;21.30;46.80;;;;;;5045354;28;20041;-61
2022/05/29 03:14:30;;;;;;;3.40;0.90;;;21.20;46.80;;;;;;5057497;28;20037;-61
2022/05/29 03:17:14;;;;;;;2.70;1.00;;;21.30;46.90;;;;;;5037676;28;20476;-61
2022/05/29 03:19:54;;;;;;;2.35;1.10;;;21.30;46.80;;;;;;5036148;28;20098;-61
2022/05/29 03:22:20;;;;;;;2.05;0.93;;;21.20;46.80;;;;;;5045700;28;20094;-62
2022/05/29 03:24:53;;;;;;;1.65;1.00;;;21.20;46.90;;;;;;5057426;28;20044;-61
2022/05/29 03:27:28;;;;;;;2.58;1.00;;;21.20;46.90;;;;;;5054553;28;20044;-62
2022/05/29 03:30:09;;;;;;;3.00;1.10;;;21.20;46.80;;;;;;5056643;28;20040;-61
2022/05/29 03:32:35;;;;;;;2.75;0.90;;;21.20;46.80;;;;;;5054998;28;20053;-61
2022/05/29 03:35:16;;;;;;;2.75;1.08;;;21.20;46.90;;;;;;5055569;28;20044;-61
2022/05/29 03:37:42;;;;;;;1.45;0.95;;;21.20;46.80;;;;;;5055589;28;20041;-61
2022/05/29 03:40:09;;;;;;;2.17;1.20;;;21.20;46.90;;;;;;5055706;28;20095;-61
2022/05/29 03:42:34;;;;;;;1.45;0.85;;;21.20;47.60;;;;;;5055930;28;20041;-61
2022/05/29 03:45:00;;;;;;;2.28;1.05;;;21.20;46.90;;;;;;5055642;28;20310;-62
2022/05/29 03:47:25;;;;;;;1.73;0.80;;;21.20;46.90;;;;;;5055449;28;20301;-63
2022/05/29 03:49:51;;;;;;;1.67;0.90;;;21.20;46.90;;;;;;5022183;28;20041;-63
2022/05/29 03:52:16;;;;;;;2.50;0.85;;;21.10;46.90;;;;;;5056218;28;20053;-62
2022/05/29 03:54:42;;;;;;;1.65;1.10;;;21.10;46.90;;;;;;5036146;28;20055;-61
2022/05/29 03:57:07;;;;;;;1.75;0.90;;;21.20;47.00;;;;;;5056193;28;20373;-60
2022/05/29 03:59:33;;;;;;;2.83;1.20;;;21.10;46.90;;;;;;5036855;28;20949;-61
2022/05/29 04:01:58;;;;;;;1.92;0.95;;;21.10;46.80;;;;;;5052708;28;20489;-63
2022/05/29 04:04:24;;;;;;;2.55;0.88;;;21.10;46.90;;;;;;5051829;28;20056;-61
2022/05/29 04:06:49;;;;;;;1.58;1.10;;;21.10;46.90;;;;;;5052797;28;20036;-61
2022/05/29 04:12:05;;;;;;;3.30;1.05;;;21.10;46.90;;;;;;5055674;28;20125;-61
2022/05/29 04:14:41;;;;;;;4.88;1.20;;;21.10;46.90;;;;;;5054626;28;20112;-61
2022/05/29 04:17:08;;;;;;;2.00;1.00;;;21.10;46.90;;;;;;5054144;28;20056;-61
2022/05/29 04:19:33;;;;;;;1.95;1.10;;;21.10;46.90;;;;;;5053416;28;20081;-61
2022/05/29 04:21:59;;;;;;;2.00;1.13;;;21.10;46.90;;;;;;5055740;28;20476;-62
2022/05/29 04:24:26;;;;;;;2.08;0.95;;;21.10;46.90;;;;;;5055660;28;20040;-62
2022/05/29 04:26:51;;;;;;;2.47;1.20;;;21.10;46.90;;;;;;5056272;28;20040;-62
2022/05/29 04:29:19;;;;;;;4.22;1.20;;;21.10;46.90;;;;;;5054124;28;20415;-61
2022/05/29 04:34:28;;;;;;;1.88;1.13;;;21.10;46.90;;;;;;5053579;28;20171;-61
2022/05/29 04:36:54;;;;;;;2.53;1.02;;;21.00;46.80;;;;;;5055532;28;20138;-61
2022/05/29 04:39:20;;;;;;;3.10;1.10;;;21.00;46.80;;;;;;5055057;28;20082;-61
2022/05/29 04:41:45;;;;;;;1.98;1.00;;;21.00;46.80;;;;;;5056437;28;20111;-62
2022/05/29 04:44:11;;;;;;;3.03;0.90;;;21.00;46.80;;;;;;5054505;28;20116;-62
2022/05/29 04:46:36;;;;;;;1.73;1.00;;;21.00;46.80;;;;;;5051610;28;20958;-61
2022/05/29 04:49:02;;;;;;;2.72;1.20;;;21.00;47.60;;;;;;5055487;28;20037;-61
2022/05/29 04:51:28;;;;;;;2.53;1.02;;;21.00;46.80;;;;;;5056153;28;20545;-61
2022/05/29 04:53:54;;;;;;;2.53;1.20;;;21.00;46.90;;;;;;5057471;28;20033;-61
2022/05/29 04:56:19;;;;;;;2.10;1.17;;;21.00;46.90;;;;;;5046174;28;20041;-61
2022/05/29 04:58:45;;;;;;;2.28;1.10;;;21.00;46.90;;;;;;5054147;28;20076;-61
2022/05/29 05:01:10;;;;;;;3.30;1.30;;;21.00;46.90;;;;;;5056042;28;20072;-61
2022/05/29 05:03:36;;;;;;;2.88;1.13;;;21.00;46.80;;;;;;5053782;28;20040;-60
2022/05/29 05:06:02;;;;;;;2.47;1.27;;;21.00;46.90;;;;;;5054365;28;20483;-61
2022/05/29 05:08:28;;;;;;;3.28;1.40;;;21.00;46.90;;;;;;5055274;28;20123;-61
2022/05/29 05:10:54;;;;;;;2.42;1.02;;;21.00;46.90;;;;;;5035930;28;20123;-60
2022/05/29 05:13:20;;;;;;;3.40;1.00;;;21.00;46.80;;;;;;5053653;28;20120;-61
2022/05/29 05:15:46;;;;;;;2.35;0.90;;;21.00;46.90;;;;;;5052641;28;20036;-62
2022/05/29 05:18:11;;;;;;;2.17;0.93;;;21.00;46.90;;;;;;5058631;28;20371;-62
2022/05/29 05:20:38;;;;;;;2.28;0.80;;;21.00;46.90;;;;;;5057696;28;20037;-61
2022/05/29 05:23:04;;;;;;;3.65;1.30;;;21.00;46.80;;;;;;5040794;28;20032;-62
2022/05/29 05:25:29;;;;;;;3.30;1.30;;;20.90;46.80;;;;;;5047799;28;20052;-63
2022/05/29 05:27:55;;;;;;;1.85;0.80;;;20.90;46.80;;;;;;5058380;28;20121;-63
2022/05/29 05:30:21;;;;;;;1.63;0.85;;;20.90;46.80;;;;;;5057593;28;20029;-62
2022/05/29 05:32:46;;;;;;;1.95;1.00;;;20.90;46.90;;;;;;5056873;28;20074;-61
2022/05/29 05:35:12;;;;;;;2.53;0.77;;;20.90;46.80;;;;;;5059154;28;20044;-62
2022/05/29 05:37:39;;;;;;;2.20;1.30;;;20.90;46.90;;;;;;5059110;28;20032;-61
2022/05/29 05:40:08;;;;;;;3.78;1.30;;;20.90;46.90;;;;;;5057951;28;20037;-61
2022/05/29 05:42:34;;;;;;;2.40;0.77;;;20.90;46.90;;;;;;5058320;28;20028;-63
2022/05/29 05:45:00;;;;;;;1.35;0.82;;;20.90;46.90;;;;;;5056278;28;20440;-61
2022/05/29 05:47:25;;;;;;;2.40;1.00;;;20.90;46.90;;;;;;5058784;28;20497;-61
2022/05/29 05:49:51;;;;;;;1.95;1.05;;;20.90;46.90;;;;;;5057636;28;20037;-61
2022/05/29 05:52:18;;;;;;;2.45;1.08;;;20.90;46.90;;;;;;5040448;28;20071;-61
2022/05/29 05:54:44;;;;;;;2.67;1.10;;;20.90;46.90;;;;;;5056995;28;20040;-61
2022/05/29 05:57:10;;;;;;;1.80;1.10;;;20.90;46.90;;;;;;5059548;28;20407;-62
2022/05/29 05:59:37;;;;;;;1.60;1.05;;;20.90;46.90;;;;;;5055485;28;20127;-61
2022/05/29 06:02:04;;;;;;;2.75;1.08;;;20.90;47.00;;;;;;5057144;28;20033;-61
2022/05/29 06:04:30;;;;;;;1.85;0.90;;;20.90;46.90;;;;;;5058671;28;20492;-62
2022/05/29 06:06:55;;;;;;;2.60;1.02;;;20.90;47.00;;;;;;5058910;28;20166;-62
2022/05/29 06:09:22;;;;;;;2.63;1.42;;;20.90;47.00;;;;;;5054525;28;20040;-63
2022/05/29 06:11:48;;;;;;;2.72;1.00;;;20.90;47.00;;;;;;5057527;28;20080;-60
2022/05/29 06:14:14;;;;;;;2.50;1.23;;;20.90;47.00;;;;;;5058198;28;20036;-61
2022/05/29 06:16:39;;;;;;;2.20;1.00;;;20.90;47.00;;;;;;5039036;28;20052;-61
2022/05/29 06:19:06;;;;;;;2.60;0.90;;;20.90;47.00;;;;;;5055455;28;20072;-61
2022/05/29 06:21:33;;;;;;;3.10;1.13;;;20.80;47.00;;;;;;5057190;28;20116;-62
2022/05/29 06:23:58;;;;;;;3.10;1.17;;;20.80;47.00;;;;;;5057601;28;21146;-61
2022/05/29 06:26:24;;;;;;;3.50;1.17;;;20.80;47.00;;;;;;5057953;28;20048;-61
2022/05/29 06:28:49;;;;;;;2.63;0.95;;;20.80;47.00;;;;;;5054591;28;20059;-61
2022/05/29 06:31:15;;;;;;;2.47;1.02;;;20.80;47.00;;;;;;5057183;28;20516;-61
2022/05/29 06:33:41;;;;;;;2.15;1.17;;;20.80;47.00;;;;;;5058352;28;20055;-61
2022/05/29 06:36:23;;;;;;;1.67;0.90;;;20.80;47.00;;;;;;5055471;28;20140;-61
2022/05/29 06:38:50;;;;;;;2.70;0.90;;;20.80;47.10;;;;;;5055599;28;20047;-61
2022/05/29 06:41:18;;;;;;;1.73;0.90;;;20.80;47.20;;;;;;5055733;28;20032;-62
2022/05/29 06:43:43;;;;;;;3.60;1.10;;;20.80;47.10;;;;;;5056705;28;20152;-61
2022/05/29 06:46:11;;;;;;;7.80;1.02;;;20.80;47.10;;;;;;5053413;28;20053;-60
2022/05/29 06:48:38;;;;;;;5.95;1.23;;;20.80;46.90;;;;;;5049473;28;20033;-58
2022/05/29 06:51:06;;;;;;;2.88;1.02;;;20.80;46.90;;;;;;5051878;28;20467;-60
2022/05/29 06:53:32;;;;;;;2.85;1.20;;;20.80;47.10;;;;;;5053319;28;20067;-60
2022/05/29 06:55:57;;;;;;;6.75;1.20;;;20.80;47.20;;;;;;5053896;28;20048;-60
2022/05/29 06:58:23;;;;;;;8.00;1.40;;;20.80;47.30;;;;;;5055974;28;20489;-60
2022/05/29 07:09:04;;;;;;;1.95;0.88;;;20.80;47.70;;;;;;5056460;28;20059;-60
2022/05/29 07:11:35;;;;;;;3.17;0.90;;;20.80;47.80;;;;;;5055815;28;20454;-60
2022/05/29 07:14:04;;;;;;;3.15;1.00;;;20.80;47.90;;;;;;5054649;28;20486;-60
2022/05/29 07:16:30;;;;;;;5.18;1.38;;;20.80;47.90;;;;;;5053435;28;20139;-59
2022/05/29 07:18:55;;;;;;;5.60;1.30;;;20.80;48.10;;;;;;5053189;28;20547;-59
2022/05/29 07:21:22;;;;;;;4.13;1.20;;;20.80;48.20;;;;;;5054094;28;20064;-60
2022/05/29 07:23:49;;;;;;;4.60;1.40;;;20.80;48.30;;;;;;5038403;28;20582;-59
2022/05/29 07:26:16;;;;;;;4.10;1.17;;;20.80;48.20;;;;;;5035756;28;20094;-61
2022/05/29 07:28:41;;;;;;;3.83;1.25;;;20.80;48.20;;;;;;5039026;28;20064;-60
2022/05/29 07:31:07;;;;;;;4.45;1.55;;;20.80;48.20;;;;;;5054386;28;21669;-59
2022/05/29 07:33:32;;;;;;;4.47;1.10;;;20.80;48.20;;;;;;5053884;28;20045;-61
2022/05/29 07:35:59;;;;;;;6.68;1.25;;;20.80;48.20;;;;;;5051917;28;20063;-59
2022/05/29 07:38:26;;;;;;;2.72;1.02;;;20.80;48.20;;;;;;5054663;28;20043;-60
2022/05/29 07:40:52;;;;;;;3.85;1.23;;;20.80;48.20;;;;;;5052389;28;20041;-60
2022/05/29 07:43:22;;;;;;;2.45;1.00;;;20.80;48.20;;;;;;5053707;28;20037;-59
2022/05/29 07:45:53;;;;;;;4.40;1.20;;;20.80;48.20;;;;;;5054013;28;20117;-60
2022/05/29 07:48:21;;;;;;;3.38;1.17;;;20.80;48.20;;;;;;5054057;28;20041;-59
2022/05/29 07:50:47;;;;;;;4.15;1.10;;;20.80;48.20;;;;;;5052778;28;20059;-59
2022/05/29 07:53:13;;;;;;;4.60;1.20;;;20.80;48.30;;;;;;5052772;28;20583;-59
2022/05/29 07:55:39;;;;;;;3.55;1.20;;;20.80;48.20;;;;;;5055057;28;20040;-59
2022/05/29 07:58:06;;;;;;;3.03;0.93;;;20.80;48.10;;;;;;5054103;28;20036;-60
2022/05/29 08:00:34;;;;;;;2.13;0.90;;;20.80;48.10;;;;;;5052701;28;20045;-61
2022/05/29 08:03:00;;;;;;;4.80;1.20;;;20.80;48.20;;;;;;5052439;28;20045;-62
2022/05/29 08:05:25;;;;;;;3.08;0.98;;;20.80;48.20;;;;;;5052251;28;20062;-59
2022/05/29 08:07:51;;;;;;;3.03;1.27;;;20.80;48.20;;;;;;5052295;28;20059;-60
2022/05/29 08:10:20;;;;;;;5.95;1.70;;;20.80;48.20;;;;;;5051010;28;20068;-59
2022/05/29 08:12:46;;;;;;;3.63;0.90;;;20.80;48.10;;;;;;5054748;28;20029;-59
2022/05/29 08:15:12;;;;;;;2.90;0.95;;;20.80;48.00;;;;;;5046097;28;20421;-62
2022/05/29 08:17:38;;;;;;;3.45;1.23;;;20.80;48.10;;;;;;5054413;28;20108;-58
2022/05/29 08:20:05;;;;;;;3.75;1.30;;;20.80;48.00;;;;;;5052619;28;20110;-59
2022/05/29 08:22:30;;;;;;;4.78;1.20;;;20.80;48.10;;;;;;5035666;28;20052;-62
2022/05/29 08:30:38;;;;;;;3.80;1.02;;;20.80;48.10;;;;;;5053718;28;20077;-61
2022/05/29 08:33:23;;;;;;;2.08;1.00;;;20.80;48.20;;;;;;5054994;28;20492;-60
2022/05/29 08:36:00;;;;;;;4.85;1.45;;;20.80;48.30;;;;;;5053281;28;20111;-60
2022/05/29 08:38:27;;;;;;;3.33;1.20;;;20.80;48.50;;;;;;5055267;28;20037;-60
2022/05/29 08:40:57;;;;;;;7.72;1.50;;;20.80;48.50;;;;;;5052218;28;20047;-61
2022/05/29 08:43:31;;;;;;;5.72;1.30;;;20.80;48.60;;;;;;5053332;28;20037;-60
2022/05/29 08:46:02;;;;;;;9.27;0.98;;;20.80;48.40;;;;;;5047457;28;20422;-60
2022/05/29 08:48:28;;;;;;;3.35;1.50;;;20.80;48.30;;;;;;5052039;28;20052;-59
2022/05/29 08:51:03;;;;;;;6.28;1.67;;;20.80;48.30;;;;;;5030735;28;20151;-60
2022/05/29 08:54:01;;;;;;;6.25;1.20;;;20.80;48.60;;;;;;5054506;28;20242;-61
2022/05/29 08:56:32;;;;;;;5.88;1.13;;;20.80;48.70;;;;;;5055910;28;20078;-60
2022/05/29 08:59:13;;;;;;;7.03;1.65;;;20.80;48.70;;;;;;5056911;28;22408;-60
2022/05/29 09:01:57;;;;;;;6.28;1.63;;;20.80;48.50;;;;;;5054251;28;20060;-60
2022/05/29 09:04:32;;;;;;;7.85;1.85;;;20.80;48.10;;;;;;5056207;28;20029;-60
2022/05/29 09:07:00;;;;;;;5.32;1.52;;;20.80;47.70;;;;;;5022667;28;20041;-60
2022/05/29 09:09:39;;;;;;;6.25;1.40;;;20.80;47.70;;;;;;5057193;28;20129;-59
2022/05/29 09:12:10;;;;;;;4.45;1.05;;;20.80;47.70;;;;;;5056059;28;20687;-59
2022/05/29 09:14:52;;;;;;;3.13;1.20;;;20.80;47.80;;;;;;5037551;28;20041;-60
2022/05/29 09:17:48;;;;;;;5.30;1.30;;;20.80;47.80;;;;;;5030509;28;20072;-61
2022/05/29 09:20:31;;;;;;;5.32;1.48;;;20.80;47.80;;;;;;5043720;28;20041;-61
2022/05/29 09:22:59;;;;;;;4.07;1.10;;;20.80;47.70;;;;;;5049498;28;20025;-60
2022/05/29 09:25:40;;;;;;;4.82;1.13;;;20.80;47.60;;;;;;5055313;28;20044;-62
2022/05/29 09:28:24;;;;;;;4.13;1.20;;;20.80;47.40;;;;;;5046219;28;20431;-60
2022/05/29 09:31:01;;;;;;;4.90;1.10;;;20.80;47.40;;;;;;5036597;28;20085;-62
2022/05/29 09:33:28;;;;;;;6.38;1.23;;;20.80;47.30;;;;;;5055395;28;20403;-60
2022/05/29 09:36:00;;;;;;;3.15;1.20;;;20.80;47.30;;;;;;5057654;28;20051;-60
2022/05/29 09:38:51;;;;;;;8.05;1.20;;;20.80;47.20;;;;;;5057301;28;20123;-60
2022/05/29 09:41:28;;;;;;;2.35;1.02;;;20.80;47.10;;;;;;5055430;28;20579;-61
2022/05/29 09:44:02;;;;;;;2.42;1.17;;;20.80;47.20;;;;;;5057205;28;20430;-61
2022/05/29 09:46:35;;;;;;;3.80;1.17;;;20.70;47.10;;;;;;5050023;28;20044;-60
2022/05/29 09:52:07;;;;;;;2.47;1.10;;;20.70;47.00;;;;;;5054117;28;20815;-62
2022/05/29 09:54:43;;;;;;;2.65;1.15;;;20.70;47.00;;;;;;5055609;28;20044;-61
2022/05/29 09:57:41;;;;;;;7.75;1.40;;;20.70;47.10;;;;;;5055891;28;20502;-61
2022/05/29 10:00:35;;;;;;;3.88;0.93;;;20.80;47.10;;;;;;5038844;28;20041;-60
2022/05/29 10:03:05;;;;;;;3.45;1.08;;;20.70;47.00;;;;;;5047065;28;20463;-61
2022/05/29 10:05:39;;;;;;;4.10;1.30;;;20.70;47.00;;;;;;5057304;28;20037;-62
2022/05/29 10:08:27;;;;;;;2.03;1.10;;;20.70;46.90;;;;;;5056663;28;20040;-61
2022/05/29 10:10:52;;;;;;;3.30;1.10;;;20.70;46.80;;;;;;5055964;28;20044;-60
2022/05/29 10:13:36;;;;;;;3.40;1.10;;;20.70;46.90;;;;;;5056209;28;20045;-61
2022/05/29 10:16:01;;;;;;;2.78;1.25;;;20.70;46.90;;;;;;5058689;28;20074;-61
2022/05/29 10:18:35;;;;;;;2.78;1.08;;;20.70;46.90;;;;;;5053386;28;20032;-60
2022/05/29 10:21:15;;;;;;;2.92;1.05;;;20.70;47.00;;;;;;5055152;28;20107;-61
2022/05/29 10:23:53;;;;;;;2.78;0.88;;;20.70;46.90;;;;;;5056488;28;20041;-62
2022/05/29 10:26:21;;;;;;;2.17;0.90;;;20.70;47.00;;;;;;5056306;28;20040;-60
2022/05/29 10:28:47;;;;;;;1.70;0.68;;;20.70;46.90;;;;;;5055206;28;20131;-60
2022/05/29 10:31:21;;;;;;;2.35;0.93;;;20.70;46.90;;;;;;5055214;28;20087;-61
2022/05/29 10:34:07;;;;;;;1.95;0.88;;;20.70;46.90;;;;;;5050318;28;20136;-60
2022/05/29 10:36:34;;;;;;;2.30;1.10;;;20.70;47.10;;;;;;5056326;28;20041;-60
2022/05/29 10:39:11;;;;;;;3.10;0.80;;;20.70;47.20;;;;;;5057366;28;20045;-61
2022/05/29 10:41:39;;;;;;;1.95;0.90;;;20.70;47.20;;;;;;5055435;28;20033;-61
2022/05/29 10:44:09;;;;;;;3.72;0.70;;;20.70;47.10;;;;;;5057299;28;20041;-61
2022/05/29 10:46:43;;;;;;;1.95;0.75;;;20.70;47.20;;;;;;5056187;28;20051;-61
2022/05/29 10:49:24;;;;;;;2.58;0.70;;;20.70;47.40;;;;;;5055674;28;20042;-61
2022/05/29 10:52:05;;;;;;;2.83;1.13;;;20.70;47.20;;;;;;5046616;28;20309;-61
2022/05/29 10:54:39;;;;;;;2.75;0.93;;;20.70;47.40;;;;;;5052234;28;20141;-61
2022/05/29 10:57:51;;;;;;;2.13;0.77;;;20.70;47.40;;;;;;5038973;28;20037;-61
2022/05/29 11:00:51;;;;;;;1.60;0.75;;;20.70;47.60;;;;;;5031081;28;20461;-62
2022/05/29 11:03:26;;;;;;;1.67;0.63;;;20.70;47.70;;;;;;5055899;28;20454;-61
2022/05/29 11:06:21;;;;;;;1.45;0.60;;;20.70;47.70;;;;;;5054658;28;20044;-61
2022/05/29 11:09:00;;;;;;;3.38;1.00;;;20.80;47.70;;;;;;5056288;28;20041;-61
2022/05/29 11:11:40;;;;;;;1.30;0.63;;;20.70;47.70;;;;;;5053041;28;20044;-60
2022/05/29 11:14:24;;;;;;;3.65;0.90;;;20.70;47.60;;;;;;5051558;28;20041;-60
2022/05/29 11:17:11;;;;;;;5.28;1.13;;;20.70;47.30;;;;;;5055589;28;20049;-61
2022/05/29 11:20:00;;;;;;;3.90;1.00;;;20.70;46.80;;;;;;5054210;28;20118;-61
2022/05/29 11:22:43;;;;;;;3.53;0.90;;;20.70;46.50;;;;;;5055396;28;20110;-60
2022/05/29 11:25:11;;;;;;;3.55;0.93;;;20.70;47.00;;;;;;5053873;28;20037;-61
2022/05/29 11:27:55;;;;;;;3.92;0.95;;;20.70;47.10;;;;;;5055217;28;20036;-60
2022/05/29 11:30:30;;;;;;;2.42;0.85;;;20.70;47.30;;;;;;5053706;28;20467;-60
2022/05/29 11:33:18;;;;;;;2.95;0.90;;;20.70;47.50;;;;;;5056983;28;20439;-60
2022/05/29 11:36:28;;;;;;;2.78;0.70;;;20.70;47.50;;;;;;5053762;28;20689;-60
2022/05/29 11:39:18;;;;;;;2.75;0.90;;;20.70;47.60;;;;;;4962843;28;20054;-60
2022/05/29 11:42:16;;;;;;;2.90;1.00;;;20.80;47.60;;;;;;4962656;28;20474;-60
2022/05/29 11:44:58;;;;;;;2.00;0.80;;;20.70;47.70;;;;;;5040786;28;20212;-60
2022/05/29 11:53:34;;;;;;;2.95;1.10;;;20.70;47.80;;;;;;5053606;28;20036;-60
2022/05/29 11:56:05;;;;;;;1.92;0.90;;;20.70;47.80;;;;;;5055197;28;20045;-62
2022/05/29 11:58:34;;;;;;;2.97;0.88;;;20.70;47.90;;;;;;5053128;28;20044;-60
2022/05/29 12:01:11;;;;;;;2.17;0.85;;;20.70;47.90;;;;;;5055108;28;20090;-60
2022/05/29 12:04:08;;;;;;;2.00;0.90;;;20.70;47.80;;;;;;5052874;28;20032;-59
2022/05/29 12:06:42;;;;;;;3.78;0.90;;;20.80;47.80;;;;;;5053812;28;20105;-60
2022/05/29 12:09:26;;;;;;;2.25;0.90;;;20.70;47.80;;;;;;5054074;28;20049;-60
2022/05/29 12:12:03;;;;;;;3.40;0.90;;;20.70;47.70;;;;;;5054564;28;20039;-60
2022/05/29 12:14:43;;;;;;;2.08;0.77;;;20.70;47.80;;;;;;5054230;28;20045;-60
2022/05/29 12:17:12;;;;;;;1.50;0.80;;;20.70;47.70;;;;;;5053287;28;20055;-61
2022/05/29 12:19:50;;;;;;;1.75;0.70;;;20.70;47.80;;;;;;5036623;28;20044;-60
2022/05/29 12:22:22;;;;;;;2.15;0.90;;;20.70;47.70;;;;;;5037442;28;20395;-61
2022/05/29 12:24:50;;;;;;;1.85;0.60;;;20.70;47.70;;;;;;5052756;28;20103;-60
2022/05/29 12:27:25;;;;;;;1.75;0.80;;;20.80;47.70;;;;;;5056827;28;20028;-61
2022/05/29 12:30:16;;;;;;;3.40;1.00;;;20.70;47.80;;;;;;5041866;28;20049;-61
2022/05/29 12:32:42;;;;;;;3.00;0.90;;;20.70;48.40;;;;;;5057508;28;20112;-61
2022/05/29 12:35:25;;;;;;;2.88;0.93;;;20.80;47.80;;;;;;5056947;28;20451;-62
2022/05/29 12:38:26;;;;;;;3.08;0.70;;;20.80;47.80;;;;;;5061065;28;20051;-60
2022/05/29 12:41:33;;;;;;;3.60;0.60;;;20.70;47.70;;;;;;5057905;28;20045;-61
2022/05/29 12:44:26;;;;;;;1.25;0.70;;;20.70;47.80;;;;;;5061135;28;20064;-62
2022/05/29 12:47:22;;;;;;;2.22;0.70;;;20.70;47.80;;;;;;5056754;28;21135;-60
2022/05/29 12:50:12;;;;;;;2.95;0.50;;;20.70;47.90;;;;;;5057551;28;20924;-61
2022/05/29 12:53:06;;;;;;;1.42;0.82;;;20.70;47.90;;;;;;5058278;28;20056;-61
2022/05/29 12:55:37;;;;;;;2.58;1.10;;;20.70;47.90;;;;;;5060134;28;20464;-62
2022/05/29 12:58:24;;;;;;;4.28;1.13;;;20.70;48.00;;;;;;5059613;28;20094;-61
2022/05/29 13:01:19;;;;;;;3.03;0.90;;;20.70;48.00;;;;;;5056581;28;20040;-61
2022/05/29 13:04:16;;;;;;;2.33;0.90;;;20.70;47.90;;;;;;5019922;28;20036;-62
2022/05/29 13:07:02;;;;;;;2.38;0.85;;;20.70;47.90;;;;;;5020045;28;20471;-60
2022/05/29 13:09:46;;;;;;;3.42;0.93;;;20.70;47.90;;;;;;5049052;28;20039;-63
2022/05/29 13:12:20;;;;;;;2.92;1.02;;;20.70;47.90;;;;;;5057249;28;20033;-60
2022/05/29 13:14:53;;;;;;;2.83;0.85;;;20.70;47.80;;;;;;5058124;28;20124;-59
2022/05/29 13:17:24;;;;;;;2.53;0.93;;;20.70;47.80;;;;;;5059608;28;20441;-60
2022/05/29 13:20:02;;;;;;;3.58;0.80;;;20.70;47.90;;;;;;5056529;28;20049;-60
2022/05/29 13:22:46;;;;;;;7.90;1.00;;;20.70;47.90;;;;;;5058422;28;20041;-61
2022/05/29 13:25:13;;;;;;;2.60;0.70;;;20.70;48.20;;;;;;5057753;28;20075;-60
2022/05/29 13:27:38;;;;;;;1.42;0.80;;;20.70;48.30;;;;;;5057064;28;20040;-60
2022/05/29 13:30:07;;;;;;;1.17;0.63;;;20.70;48.40;;;;;;5058102;28;20037;-60
2022/05/29 13:32:34;;;;;;;2.42;1.00;;;20.70;48.50;;;;;;5057323;28;20053;-60
2022/05/29 13:35:02;;;;;;;0.85;0.70;;;20.70;48.50;;;;;;5060092;28;20053;-61
2022/05/29 13:37:49;;;;;;;2.50;0.82;;;20.70;48.50;;;;;;5056670;28;20051;-62
2022/05/29 13:40:21;;;;;;;3.53;0.80;;;20.70;48.50;;;;;;5053895;28;20033;-62
2022/05/29 13:42:52;;;;;;;1.80;0.77;;;20.70;48.60;;;;;;5054366;28;20052;-60
2022/05/29 13:45:24;;;;;;;4.40;1.10;;;20.70;48.70;;;;;;5055712;28;20045;-61
2022/05/29 13:48:01;;;;;;;2.88;0.93;;;20.70;48.70;;;;;;5057656;28;20423;-61